Time;durP1;ratioP1;P1;durP2;ratioP2;P2;SDS_P1;SDS_P2;PMS_P1;PMS_P2;Temp;Humidity;BMP_temperature;BMP_pressure;BME280_temperature;BME280_humidity;BME280_pressure;Samples;Min_cycle;Max_cycle;Signal;HPM_P1;HPM_P2
2022/09/12 04:31:29;;;;;;;;;21.00;15.67;;;;;;;;5412117;23;46425;-52
2022/09/12 04:33:55;;;;;;;;;16.33;14.00;;;;;;;;5032085;28;45371;-52
2022/09/12 04:36:21;;;;;;;;;15.67;15.67;;;;;;;;5034495;28;45319;-52
2022/09/12 04:38:47;;;;;;;;;14.00;14.00;;;;;;;;5028993;28;46757;-53
2022/09/12 04:41:17;;;;;;;;;17.33;16.67;;;;;;;;5020060;28;45467;-54
2022/09/12 04:43:45;;;;;;;;;12.33;12.33;;;;;;;;5019199;28;45356;-54
2022/09/12 04:46:11;;;;;;;;;15.00;14.33;;;;;;;;5026682;28;45533;-54
2022/09/12 04:48:36;;;;;;;;;17.00;17.00;;;;;;;;5018561;28;46268;-52
2022/09/12 04:51:12;;;;;;;;;17.00;16.00;;;;;;;;5021161;28;45336;-54
2022/09/12 04:53:38;;;;;;;;;18.33;16.00;;;;;;;;5025867;28;45479;-55
2022/09/12 04:56:04;;;;;;;;;16.00;14.67;;;;;;;;5018400;28;45432;-55
2022/09/12 04:58:30;;;;;;;;;16.33;15.33;;;;;;;;5012678;28;47181;-54
2022/09/12 05:00:55;;;;;;;;;15.67;14.67;;;;;;;;5018994;28;45150;-55
2022/09/12 05:03:20;;;;;;;;;18.33;16.00;;;;;;;;5019157;28;45664;-55
2022/09/12 05:05:45;;;;;;;;;16.33;16.33;;;;;;;;5018781;28;45307;-55
2022/09/12 05:08:10;;;;;;;;;16.33;15.00;;;;;;;;5019629;28;47188;-51
2022/09/12 05:10:36;;;;;;;;;18.33;16.67;;;;;;;;5020307;28;45379;-54
2022/09/12 05:13:01;;;;;;;;;17.33;17.33;;;;;;;;5018847;28;45959;-56
2022/09/12 05:15:26;;;;;;;;;17.67;17.67;;;;;;;;5017786;28;45377;-55
2022/09/12 05:17:51;;;;;;;;;15.00;15.00;;;;;;;;5018216;28;45343;-50
2022/09/12 05:20:16;;;;;;;;;14.00;13.33;;;;;;;;5019477;28;45564;-55
2022/09/12 05:22:42;;;;;;;;;15.67;14.33;;;;;;;;5018469;28;45441;-54
2022/09/12 05:25:07;;;;;;;;;16.67;13.00;;;;;;;;5018367;28;45569;-54
2022/09/12 05:27:32;;;;;;;;;15.00;15.00;;;;;;;;5018122;28;46113;-52
2022/09/12 05:29:58;;;;;;;;;18.00;16.00;;;;;;;;5018278;28;45452;-53
2022/09/12 05:32:23;;;;;;;;;18.33;15.33;;;;;;;;5016829;28;45276;-54
2022/09/12 05:34:48;;;;;;;;;14.00;13.00;;;;;;;;5018068;28;45395;-54
2022/09/12 05:37:13;;;;;;;;;14.33;14.00;;;;;;;;5017936;28;46686;-62
2022/09/12 05:39:38;;;;;;;;;17.33;14.00;;;;;;;;5017685;28;45576;-62
2022/09/12 05:42:04;;;;;;;;;19.00;15.67;;;;;;;;5018487;28;45304;-62
2022/09/12 05:44:30;;;;;;;;;14.00;13.33;;;;;;;;5018078;28;45241;-63
2022/09/12 05:46:55;;;;;;;;;15.67;15.00;;;;;;;;5017786;28;46405;-62
2022/09/12 05:49:20;;;;;;;;;17.00;16.67;;;;;;;;5016781;28;45615;-61
2022/09/12 05:51:45;;;;;;;;;10.00;9.00;;;;;;;;5017662;28;45316;-62
2022/09/12 05:54:12;;;;;;;;;14.67;13.33;;;;;;;;5018004;28;45363;-62
2022/09/12 05:56:39;;;;;;;;;19.67;17.67;;;;;;;;5017979;28;46171;-62
2022/09/12 05:59:06;;;;;;;;;16.67;14.00;;;;;;;;5029137;28;45450;-62
2022/09/12 06:01:32;;;;;;;;;24.67;17.33;;;;;;;;5017114;28;45364;-61
2022/09/12 06:03:59;;;;;;;;;14.67;14.67;;;;;;;;5027655;28;45458;-61
2022/09/12 06:06:26;;;;;;;;;21.33;14.67;;;;;;;;5012654;28;45581;-63
2022/09/12 06:08:52;;;;;;;;;20.00;12.67;;;;;;;;5021925;28;45690;-63
2022/09/12 06:11:18;;;;;;;;;16.00;15.00;;;;;;;;5025146;28;45630;-62
2022/09/12 06:13:44;;;;;;;;;8.67;5.33;;;;;;;;5020430;28;45585;-63
2022/09/12 06:16:11;;;;;;;;;18.33;15.00;;;;;;;;5020095;28;45379;-63
2022/09/12 06:18:37;;;;;;;;;17.33;14.00;;;;;;;;5018334;28;45467;-63
2022/09/12 06:21:03;;;;;;;;;15.00;14.00;;;;;;;;5032062;28;45711;-62
2022/09/12 06:23:29;;;;;;;;;19.00;15.67;;;;;;;;5009818;28;45605;-62
2022/09/12 06:25:54;;;;;;;;;16.33;16.00;;;;;;;;5023512;28;46096;-63
2022/09/12 06:28:19;;;;;;;;;13.00;13.00;;;;;;;;5020584;28;45402;-63
2022/09/12 06:30:44;;;;;;;;;16.67;16.00;;;;;;;;5029459;28;45561;-63
2022/09/12 06:33:10;;;;;;;;;12.67;12.67;;;;;;;;5027174;28;46930;-63
2022/09/12 06:35:36;;;;;;;;;20.00;14.67;;;;;;;;5015145;28;45291;-61
2022/09/12 06:38:01;;;;;;;;;13.00;13.00;;;;;;;;5019782;28;45711;-62
2022/09/12 06:40:27;;;;;;;;;19.67;14.33;;;;;;;;5028230;28;45340;-63
2022/09/12 06:42:52;;;;;;;;;13.33;13.00;;;;;;;;5020217;28;45659;-63
2022/09/12 06:45:18;;;;;;;;;13.67;13.67;;;;;;;;5020148;28;46179;-62
2022/09/12 06:47:44;;;;;;;;;10.00;8.33;;;;;;;;5019688;28;46507;-63
2022/09/12 06:50:09;;;;;;;;;13.00;10.00;;;;;;;;5022204;28;45446;-62
2022/09/12 06:52:34;;;;;;;;;7.33;7.33;;;;;;;;5020739;28;45475;-62
2022/09/12 06:54:59;;;;;;;;;13.67;13.67;;;;;;;;5020889;28;45927;-62
2022/09/12 06:57:28;;;;;;;;;13.67;12.00;;;;;;;;5019850;28;45501;-61
2022/09/12 06:59:54;;;;;;;;;13.00;13.00;;;;;;;;5021608;28;45402;-62
2022/09/12 07:02:19;;;;;;;;;11.00;11.00;;;;;;;;5026067;28;45501;-62
2022/09/12 07:04:44;;;;;;;;;13.00;13.00;;;;;;;;5020308;28;46336;-61
2022/09/12 07:07:10;;;;;;;;;14.00;13.00;;;;;;;;5018091;28;45407;-62
2022/09/12 07:09:35;;;;;;;;;14.67;14.33;;;;;;;;5020160;28;45440;-61
2022/09/12 07:12:03;;;;;;;;;14.00;13.67;;;;;;;;5020537;28;45399;-62
2022/09/12 07:14:28;;;;;;;;;14.00;10.33;;;;;;;;5019513;28;46372;-61
2022/09/12 07:16:53;;;;;;;;;14.00;14.00;;;;;;;;5020050;28;45430;-62
2022/09/12 07:19:18;;;;;;;;;15.33;14.33;;;;;;;;5014763;28;45216;-63
2022/09/12 07:21:44;;;;;;;;;9.67;8.00;;;;;;;;5011174;28;45619;-62
2022/09/12 07:24:09;;;;;;;;;19.33;17.00;;;;;;;;5003810;28;46001;-64
2022/09/12 07:26:34;;;;;;;;;15.00;13.67;;;;;;;;5016511;28;45610;-64
2022/09/12 07:29:00;;;;;;;;;19.33;16.67;;;;;;;;5014353;28;45785;-63
2022/09/12 07:31:26;;;;;;;;;17.33;14.00;;;;;;;;5002998;28;45649;-64
2022/09/12 07:33:51;;;;;;;;;24.33;19.33;;;;;;;;5016252;28;47104;-63
2022/09/12 07:36:18;;;;;;;;;17.33;14.67;;;;;;;;5015788;28;46894;-63
2022/09/12 07:38:43;;;;;;;;;15.67;15.00;;;;;;;;5019506;28;45448;-63
2022/09/12 07:41:11;;;;;;;;;18.67;18.67;;;;;;;;5017485;28;45290;-63
2022/09/12 07:43:36;;;;;;;;;15.67;14.33;;;;;;;;5010563;28;46969;-63
2022/09/12 07:46:03;;;;;;;;;18.00;17.67;;;;;;;;5014352;28;45383;-63
2022/09/12 07:48:28;;;;;;;;;14.00;13.00;;;;;;;;5017974;28;45269;-63
2022/09/12 07:51:00;;;;;;;;;19.33;14.00;;;;;;;;5018144;28;45245;-63
2022/09/12 07:53:26;;;;;;;;;18.67;15.00;;;;;;;;5009967;28;46170;-63
2022/09/12 07:55:52;;;;;;;;;20.00;17.33;;;;;;;;5004155;28;45356;-63
2022/09/12 07:58:17;;;;;;;;;24.33;22.00;;;;;;;;5022457;28;45535;-63
2022/09/12 08:00:44;;;;;;;;;18.67;15.67;;;;;;;;5018229;28;45382;-63
2022/09/12 08:03:09;;;;;;;;;19.00;19.00;;;;;;;;5017484;28;45977;-63
2022/09/12 08:05:35;;;;;;;;;22.00;18.00;;;;;;;;5018803;28;46065;-63
2022/09/12 08:08:00;;;;;;;;;16.67;15.00;;;;;;;;5018902;28;45525;-63
2022/09/12 08:10:25;;;;;;;;;22.00;20.00;;;;;;;;5017016;28;45512;-63
2022/09/12 08:12:50;;;;;;;;;22.67;20.67;;;;;;;;5017140;28;46124;-63
2022/09/12 08:15:16;;;;;;;;;17.00;16.33;;;;;;;;5016803;28;45358;-63
2022/09/12 08:17:41;;;;;;;;;23.33;21.00;;;;;;;;5018769;28;45908;-63
2022/09/12 08:20:08;;;;;;;;;20.33;19.00;;;;;;;;5009386;28;45438;-63
2022/09/12 08:22:33;;;;;;;;;15.67;15.67;;;;;;;;5012177;28;46382;-63
2022/09/12 08:24:58;;;;;;;;;24.00;18.67;;;;;;;;5018985;28;45551;-62
2022/09/12 08:27:24;;;;;;;;;21.00;18.67;;;;;;;;5018450;28;45386;-63
2022/09/12 08:29:49;;;;;;;;;21.33;18.67;;;;;;;;5015082;28;45407;-63
2022/09/12 08:32:14;;;;;;;;;20.00;19.00;;;;;;;;5016236;28;46340;-64
2022/09/12 08:34:39;;;;;;;;;18.67;18.67;;;;;;;;5018569;28;45391;-65
2022/09/12 08:37:04;;;;;;;;;20.67;18.33;;;;;;;;5018326;28;45400;-64
2022/09/12 08:39:31;;;;;;;;;22.33;21.33;;;;;;;;5015189;28;45486;-64
2022/09/12 08:42:04;;;;;;;;;16.67;15.67;;;;;;;;5017218;28;47258;-63
2022/09/12 08:44:35;;;;;;;;;18.00;15.67;;;;;;;;5017398;28;45375;-63
2022/09/12 08:47:07;;;;;;;;;18.67;17.33;;;;;;;;5018228;28;45948;-63
2022/09/12 08:49:32;;;;;;;;;16.67;13.67;;;;;;;;5014612;28;45308;-63
2022/09/12 08:52:01;;;;;;;;;17.33;15.33;;;;;;;;5015164;28;47465;-63
2022/09/12 08:54:27;;;;;;;;;18.67;18.33;;;;;;;;5015320;28;45558;-64
2022/09/12 08:56:56;;;;;;;;;20.00;20.00;;;;;;;;5018319;28;45362;-63
2022/09/12 08:59:21;;;;;;;;;18.67;17.00;;;;;;;;5019745;28;45538;-63
2022/09/12 09:01:52;;;;;;;;;21.00;18.00;;;;;;;;5018064;28;45550;-64
2022/09/12 09:04:20;;;;;;;;;19.00;18.00;;;;;;;;5016903;28;45390;-64
2022/09/12 09:07:03;;;;;;;;;14.67;14.67;;;;;;;;5017398;28;45425;-63
2022/09/12 09:09:28;;;;;;;;;19.00;15.33;;;;;;;;5017888;28;45554;-63
2022/09/12 09:12:12;;;;;;;;;15.33;14.00;;;;;;;;5016944;28;46025;-64
2022/09/12 09:14:53;;;;;;;;;16.67;16.67;;;;;;;;5006000;28;45508;-64
2022/09/12 09:17:27;;;;;;;;;15.67;12.67;;;;;;;;5011264;28;45725;-63
2022/09/12 09:20:01;;;;;;;;;12.33;12.33;;;;;;;;5017285;28;45526;-63
2022/09/12 09:22:35;;;;;;;;;15.00;14.00;;;;;;;;5014984;28;46228;-63
2022/09/12 09:25:06;;;;;;;;;14.75;14.00;;;;;;;;5016444;28;45382;-63
2022/09/12 09:27:36;;;;;;;;;13.50;11.75;;;;;;;;5014764;28;45345;-63
2022/09/12 09:30:02;;;;;;;;;11.25;11.25;;;;;;;;5011653;28;45460;-63
2022/09/12 09:32:30;;;;;;;;;12.75;11.00;;;;;;;;5012580;28;45777;-64
2022/09/12 09:34:55;;;;;;;;;10.00;9.50;;;;;;;;5015181;28;45544;-63
2022/09/12 09:37:32;;;;;;;;;12.25;12.25;;;;;;;;5018082;28;45502;-63
2022/09/12 09:40:01;;;;;;;;;10.25;10.25;;;;;;;;5015828;28;45284;-63
2022/09/12 09:42:40;;;;;;;;;8.75;7.75;;;;;;;;5016076;28;46134;-64
2022/09/12 09:45:14;;;;;;;;;11.00;10.50;;;;;;;;5019835;28;45503;-64
2022/09/12 09:47:39;;;;;;;;;9.50;9.50;;;;;;;;5019432;28;46251;-64
2022/09/12 09:50:05;;;;;;;;;8.75;7.50;;;;;;;;5022623;28;45484;-63
2022/09/12 09:52:31;;;;;;;;;8.50;7.75;;;;;;;;5020658;28;46247;-63
2022/09/12 09:54:58;;;;;;;;;8.00;8.00;;;;;;;;5019441;28;45565;-64
2022/09/12 09:57:35;;;;;;;;;8.50;8.50;;;;;;;;5020714;28;45394;-64
2022/09/12 10:00:20;;;;;;;;;6.50;6.25;;;;;;;;5019898;28;45532;-64
2022/09/12 10:03:04;;;;;;;;;5.25;5.25;;;;;;;;5020401;28;46241;-64
2022/09/12 10:05:31;;;;;;;;;4.75;4.25;;;;;;;;5022770;28;45461;-64
2022/09/12 10:07:57;;;;;;;;;7.50;5.50;;;;;;;;5022518;28;45413;-64
2022/09/12 10:10:22;;;;;;;;;6.00;6.00;;;;;;;;5020864;28;45606;-64
2022/09/12 10:12:48;;;;;;;;;4.00;4.00;;;;;;;;5022957;28;46069;-64
2022/09/12 10:15:18;;;;;;;;;5.50;5.50;;;;;;;;5020145;28;45384;-64
2022/09/12 10:17:45;;;;;;;;;4.25;4.25;;;;;;;;5020141;28;45363;-64
2022/09/12 10:20:25;;;;;;;;;5.75;5.75;;;;;;;;5016574;28;45442;-64
2022/09/12 10:22:50;;;;;;;;;4.50;3.25;;;;;;;;5021046;28;45443;-63
2022/09/12 10:25:17;;;;;;;;;3.75;2.75;;;;;;;;5019982;28;45570;-63
2022/09/12 10:27:42;;;;;;;;;4.00;3.50;;;;;;;;5019478;28;45846;-64
2022/09/12 10:30:19;;;;;;;;;3.75;3.75;;;;;;;;5019825;28;45565;-64
2022/09/12 10:32:47;;;;;;;;;5.00;3.75;;;;;;;;5019625;28;46062;-63
2022/09/12 10:35:20;;;;;;;;;3.50;3.50;;;;;;;;5018712;28;45714;-63
2022/09/12 10:37:51;;;;;;;;;2.00;2.00;;;;;;;;5017432;28;45329;-64
2022/09/12 10:40:22;;;;;;;;;6.50;5.00;;;;;;;;5018259;28;45498;-63
2022/09/12 10:42:51;;;;;;;;;1.50;1.50;;;;;;;;5018315;28;46115;-64
2022/09/12 10:45:31;;;;;;;;;3.00;3.00;;;;;;;;5014644;28;45529;-63
2022/09/12 10:47:58;;;;;;;;;2.00;2.00;;;;;;;;5019029;28;45490;-63
2022/09/12 10:50:44;;;;;;;;;3.50;2.75;;;;;;;;5018872;28;45717;-63
2022/09/12 10:53:23;;;;;;;;;3.75;3.75;;;;;;;;5012864;28;46330;-64
2022/09/12 10:55:57;;;;;;;;;5.00;4.75;;;;;;;;5012402;28;45299;-63
2022/09/12 10:58:35;;;;;;;;;2.75;2.75;;;;;;;;5010298;28;45439;-64
2022/09/12 11:01:23;;;;;;;;;3.50;3.50;;;;;;;;5018865;28;45562;-63
2022/09/12 11:03:57;;;;;;;;;6.25;2.00;;;;;;;;5013751;28;46442;-63
2022/09/12 11:06:26;;;;;;;;;3.75;2.00;;;;;;;;5015331;28;45181;-64
2022/09/12 11:09:10;;;;;;;;;4.25;3.50;;;;;;;;5014807;28;45465;-63
2022/09/12 11:11:57;;;;;;;;;4.00;2.00;;;;;;;;5011531;28;45535;-63
2022/09/12 11:14:27;;;;;;;;;3.00;3.00;;;;;;;;5016273;28;46290;-64
2022/09/12 11:17:04;;;;;;;;;3.25;2.00;;;;;;;;5018079;28;45468;-64
2022/09/12 11:19:42;;;;;;;;;3.25;1.75;;;;;;;;5013392;28;45302;-62
2022/09/12 11:22:10;;;;;;;;;2.50;2.50;;;;;;;;5012910;28;46942;-63
2022/09/12 11:24:41;;;;;;;;;1.75;1.75;;;;;;;;5015226;28;46167;-63
2022/09/12 11:27:09;;;;;;;;;2.75;2.75;;;;;;;;5016924;28;45456;-63
2022/09/12 11:29:53;;;;;;;;;4.00;4.00;;;;;;;;5015593;28;46355;-63
2022/09/12 11:32:35;;;;;;;;;3.00;1.50;;;;;;;;5016738;28;45622;-64
2022/09/12 11:35:15;;;;;;;;;2.00;2.00;;;;;;;;5017004;28;45575;-64
2022/09/12 11:37:59;;;;;;;;;2.00;2.00;;;;;;;;5008516;28;45794;-63
2022/09/12 11:40:28;;;;;;;;;3.25;3.25;;;;;;;;5013407;28;45738;-63
2022/09/12 11:42:57;;;;;;;;;2.25;2.25;;;;;;;;5017128;28;45503;-63
2022/09/12 11:45:28;;;;;;;;;2.00;2.00;;;;;;;;5016132;28;45664;-63
2022/09/12 11:47:56;;;;;;;;;2.75;2.25;;;;;;;;5012941;28;45395;-63
2022/09/12 11:50:27;;;;;;;;;4.50;4.50;;;;;;;;5014490;28;46016;-63
2022/09/12 11:52:54;;;;;;;;;3.00;3.00;;;;;;;;5017310;28;45767;-63
2022/09/12 11:55:26;;;;;;;;;3.00;2.00;;;;;;;;5013027;28;46225;-64
2022/09/12 11:57:55;;;;;;;;;2.75;2.75;;;;;;;;5012753;28;45361;-64
2022/09/12 12:00:25;;;;;;;;;3.75;3.00;;;;;;;;5015454;28;45257;-64
2022/09/12 12:02:59;;;;;;;;;1.75;1.50;;;;;;;;5015272;28;45544;-64
2022/09/12 12:05:31;;;;;;;;;1.50;0.50;;;;;;;;5016922;28;45512;-64
2022/09/12 12:07:58;;;;;;;;;2.50;1.50;;;;;;;;5015544;28;45918;-64
2022/09/12 12:10:43;;;;;;;;;0.00;0.00;;;;;;;;5024516;28;45391;-64
2022/09/12 12:13:19;;;;;;;;;2.25;1.75;;;;;;;;5013213;28;45495;-64
2022/09/12 12:15:51;;;;;;;;;2.50;2.50;;;;;;;;5017724;28;46249;-64
2022/09/12 12:18:24;;;;;;;;;3.00;3.00;;;;;;;;5011038;28;45676;-63
2022/09/12 12:20:49;;;;;;;;;2.50;2.50;;;;;;;;5016867;28;45285;-62
2022/09/12 12:23:32;;;;;;;;;3.75;2.25;;;;;;;;5016370;28;45524;-62
2022/09/12 12:25:59;;;;;;;;;4.75;2.00;;;;;;;;5007852;28;46248;-63
2022/09/12 12:28:40;;;;;;;;;1.00;1.00;;;;;;;;5013953;28;45449;-63
2022/09/12 12:31:06;;;;;;;;;0.00;0.00;;;;;;;;5018654;28;45737;-63
2022/09/12 12:33:31;;;;;;;;;1.00;1.00;;;;;;;;5006630;28;45544;-63
2022/09/12 12:35:56;;;;;;;;;1.00;1.00;;;;;;;;5021157;28;45351;-63
2022/09/12 12:38:47;;;;;;;;;1.00;1.00;;;;;;;;5013087;28;45639;-63
2022/09/12 12:41:15;;;;;;;;;1.50;1.50;;;;;;;;5012177;28;45514;-63
2022/09/12 12:43:41;;;;;;;;;1.75;1.75;;;;;;;;5017887;28;45375;-63
2022/09/12 12:46:07;;;;;;;;;0.25;0.25;;;;;;;;5018099;28;47051;-64
2022/09/12 12:48:35;;;;;;;;;0.00;0.00;;;;;;;;5025051;28;45521;-63
2022/09/12 12:51:27;;;;;;;;;1.75;1.25;;;;;;;;5024172;28;45331;-63
2022/09/12 12:53:52;;;;;;;;;1.00;1.00;;;;;;;;5011429;28;45472;-63
2022/09/12 12:56:32;;;;;;;;;0.00;0.00;;;;;;;;5016494;28;47260;-63
2022/09/12 12:58:59;;;;;;;;;0.50;0.50;;;;;;;;5015567;28;45562;-63
2022/09/12 13:01:24;;;;;;;;;0.50;0.50;;;;;;;;5019836;28;45321;-62
2022/09/12 13:03:52;;;;;;;;;2.00;1.50;;;;;;;;5015380;28;45414;-63
2022/09/12 13:06:27;;;;;;;;;3.00;1.00;;;;;;;;5017032;28;46273;-64
2022/09/12 13:08:56;;;;;;;;;2.00;1.25;;;;;;;;5013383;28;45590;-63
2022/09/12 13:11:32;;;;;;;;;1.00;1.00;;;;;;;;5016204;28;46031;-63
2022/09/12 13:13:59;;;;;;;;;1.25;1.25;;;;;;;;5015343;28;45400;-63
2022/09/12 13:16:47;;;;;;;;;1.00;1.00;;;;;;;;5016914;28;46871;-63
2022/09/12 13:19:14;;;;;;;;;1.60;1.60;;;;;;;;5008703;28;45619;-63
2022/09/12 13:21:53;;;;;;;;;2.75;2.00;;;;;;;;5012879;28;45403;-63
2022/09/12 13:24:21;;;;;;;;;1.00;1.00;;;;;;;;5013052;28;45518;-64
2022/09/12 13:26:46;;;;;;;;;2.00;1.00;;;;;;;;5009163;28;45340;-63
2022/09/12 13:29:18;;;;;;;;;1.75;1.75;;;;;;;;5009826;28;45261;-63
2022/09/12 13:31:45;;;;;;;;;2.00;2.00;;;;;;;;5016437;28;45328;-63
2022/09/12 13:34:15;;;;;;;;;1.50;1.00;;;;;;;;5015763;28;45353;-63
2022/09/12 13:36:59;;;;;;;;;2.00;1.00;;;;;;;;5016963;28;46739;-62
2022/09/12 13:39:28;;;;;;;;;1.25;1.25;;;;;;;;5016275;28;45805;-63
2022/09/12 13:41:53;;;;;;;;;0.75;0.75;;;;;;;;5016084;28;45352;-63
2022/09/12 13:44:19;;;;;;;;;1.75;1.75;;;;;;;;5015363;28;45453;-63
2022/09/12 13:46:45;;;;;;;;;2.50;1.75;;;;;;;;5016441;28;46064;-63
2022/09/12 13:49:18;;;;;;;;;1.00;1.00;;;;;;;;5013655;28;46333;-63
2022/09/12 13:51:44;;;;;;;;;1.50;1.50;;;;;;;;5014609;28;45687;-63
2022/09/12 13:54:15;;;;;;;;;2.00;1.50;;;;;;;;5014752;28;45403;-63
2022/09/12 13:56:48;;;;;;;;;3.00;1.75;;;;;;;;5009129;28;45363;-63
2022/09/12 13:59:13;;;;;;;;;1.75;1.75;;;;;;;;5013713;28;45772;-62
2022/09/12 14:01:40;;;;;;;;;1.75;1.75;;;;;;;;5015534;28;46552;-62
2022/09/12 14:07:02;;;;;;;;;5.25;3.00;;;;;;;;5015931;28;45368;-63
2022/09/12 14:09:28;;;;;;;;;0.00;0.00;;;;;;;;5015614;28;45767;-63
2022/09/12 14:11:53;;;;;;;;;0.50;0.50;;;;;;;;5016086;28;45395;-64
2022/09/12 14:14:26;;;;;;;;;2.00;2.00;;;;;;;;5016150;28;45523;-63
2022/09/12 14:16:52;;;;;;;;;3.00;3.00;;;;;;;;5016379;28;46263;-64
2022/09/12 14:19:24;;;;;;;;;4.00;2.50;;;;;;;;5015355;28;45304;-64
2022/09/12 14:21:52;;;;;;;;;2.25;1.75;;;;;;;;5012374;28;45437;-63
2022/09/12 14:24:18;;;;;;;;;3.25;0.75;;;;;;;;5015210;28;45617;-64
2022/09/12 14:26:43;;;;;;;;;5.50;5.50;;;;;;;;5007865;28;47154;-63
2022/09/12 14:29:12;;;;;;;;;2.00;2.00;;;;;;;;5012117;28;45541;-65
2022/09/12 14:31:38;;;;;;;;;2.00;1.00;;;;;;;;5013457;28;45510;-63
2022/09/12 14:34:18;;;;;;;;;1.25;1.25;;;;;;;;5016868;28;45474;-63
2022/09/12 14:36:46;;;;;;;;;1.75;1.75;;;;;;;;5017884;28;45367;-64
2022/09/12 14:39:17;;;;;;;;;2.50;1.50;;;;;;;;5019939;28;45440;-64
2022/09/12 14:41:42;;;;;;;;;2.75;2.75;;;;;;;;5019155;28;45651;-63
2022/09/12 14:44:18;;;;;;;;;1.25;1.00;;;;;;;;5017044;28;45556;-63
2022/09/12 14:46:43;;;;;;;;;0.75;0.75;;;;;;;;5012148;28;45432;-64
2022/09/12 14:49:27;;;;;;;;;1.50;1.50;;;;;;;;5017227;28;45340;-63
2022/09/12 14:51:55;;;;;;;;;0.25;0.25;;;;;;;;5012516;28;45473;-63
2022/09/12 14:54:29;;;;;;;;;1.25;1.25;;;;;;;;5015877;28;45609;-64
2022/09/12 14:56:54;;;;;;;;;0.50;0.50;;;;;;;;5016293;28;47445;-64
2022/09/12 14:59:27;;;;;;;;;0.50;0.50;;;;;;;;5016298;28;45256;-64
2022/09/12 15:02:11;;;;;;;;;1.50;1.50;;;;;;;;5017756;28;45585;-64
2022/09/12 15:04:37;;;;;;;;;2.00;1.25;;;;;;;;5020211;28;45430;-63
2022/09/12 15:07:13;;;;;;;;;1.75;0.00;;;;;;;;5027607;28;46377;-63
2022/09/12 15:09:38;;;;;;;;;0.60;0.60;;;;;;;;5018720;28;45413;-63
2022/09/12 15:12:04;;;;;;;;;1.00;1.00;;;;;;;;5019465;28;45498;-64
2022/09/12 15:14:29;;;;;;;;;1.00;1.00;;;;;;;;5013854;28;45527;-63
2022/09/12 15:16:54;;;;;;;;;2.00;0.50;;;;;;;;5012568;28;45558;-64
2022/09/12 15:19:19;;;;;;;;;1.75;1.00;;;;;;;;5014592;28;45444;-63
2022/09/12 15:21:45;;;;;;;;;1.25;1.25;;;;;;;;5010485;28;45712;-63
2022/09/12 15:24:10;;;;;;;;;0.75;0.75;;;;;;;;5008681;28;45683;-63
2022/09/12 15:26:35;;;;;;;;;1.50;1.50;;;;;;;;5017672;28;45505;-63
2022/09/12 15:29:00;;;;;;;;;3.00;1.25;;;;;;;;5011681;28;45446;-62
2022/09/12 15:31:30;;;;;;;;;4.00;3.00;;;;;;;;5012946;28;46829;-63
2022/09/12 15:33:56;;;;;;;;;2.00;2.00;;;;;;;;5018145;28;45437;-63
2022/09/12 15:36:22;;;;;;;;;1.00;1.00;;;;;;;;5019619;28;45497;-63
2022/09/12 15:38:48;;;;;;;;;1.00;1.00;;;;;;;;5018850;28;45897;-63
2022/09/12 15:41:17;;;;;;;;;3.75;2.50;;;;;;;;5018485;28;45375;-63
2022/09/12 15:43:43;;;;;;;;;2.25;2.25;;;;;;;;5018782;28;45423;-63
2022/09/12 15:46:12;;;;;;;;;2.25;2.25;;;;;;;;5014935;28;46499;-63
2022/09/12 15:48:38;;;;;;;;;2.00;2.00;;;;;;;;5011809;28;45683;-64
2022/09/12 15:51:03;;;;;;;;;0.25;0.25;;;;;;;;5017782;28;45381;-63
2022/09/12 15:53:29;;;;;;;;;2.00;2.00;;;;;;;;5015835;28;45534;-63
2022/09/12 15:55:55;;;;;;;;;0.00;0.00;;;;;;;;5018576;28;46138;-63
2022/09/12 15:58:20;;;;;;;;;1.75;1.75;;;;;;;;5019315;28;45424;-64
2022/09/12 16:00:45;;;;;;;;;2.25;1.00;;;;;;;;5017323;28;45491;-64
2022/09/12 16:03:23;;;;;;;;;1.00;1.00;;;;;;;;5014525;28;45474;-64
2022/09/12 16:05:48;;;;;;;;;1.00;1.00;;;;;;;;5013885;28;46183;-64
2022/09/12 16:08:14;;;;;;;;;2.75;0.75;;;;;;;;5009737;28;45535;-64
2022/09/12 16:10:41;;;;;;;;;1.00;1.00;;;;;;;;5021936;28;45551;-63
2022/09/12 16:13:07;;;;;;;;;2.50;2.50;;;;;;;;5013428;28;45698;-63
2022/09/12 16:15:32;;;;;;;;;3.75;3.75;;;;;;;;5013487;28;45736;-63
2022/09/12 16:17:57;;;;;;;;;3.75;3.50;;;;;;;;5017346;28;45423;-63
2022/09/12 16:20:23;;;;;;;;;3.25;3.25;;;;;;;;5016548;28;45601;-63
2022/09/12 16:22:48;;;;;;;;;2.50;2.00;;;;;;;;5017251;28;45525;-63
2022/09/12 16:25:13;;;;;;;;;2.75;1.00;;;;;;;;5017330;28;46276;-62
2022/09/12 16:27:39;;;;;;;;;1.25;1.25;;;;;;;;5011796;28;46059;-63
2022/09/12 16:30:05;;;;;;;;;2.25;1.25;;;;;;;;5016425;28;45732;-63
2022/09/12 16:32:31;;;;;;;;;0.75;0.75;;;;;;;;5010235;28;45644;-64
2022/09/12 16:34:56;;;;;;;;;1.00;1.00;;;;;;;;5018446;28;46272;-63
2022/09/12 16:37:21;;;;;;;;;3.75;2.50;;;;;;;;5019331;28;45329;-64
2022/09/12 16:39:47;;;;;;;;;0.00;0.00;;;;;;;;5017872;28;45329;-63
2022/09/12 16:42:13;;;;;;;;;2.00;2.00;;;;;;;;5017741;28;45539;-63
2022/09/12 16:44:38;;;;;;;;;2.00;2.00;;;;;;;;5019848;28;46041;-63
2022/09/12 16:47:03;;;;;;;;;1.25;1.25;;;;;;;;5021190;28;45283;-64
2022/09/12 16:49:28;;;;;;;;;2.00;2.00;;;;;;;;5015308;28;45144;-64
2022/09/12 16:51:53;;;;;;;;;3.25;1.50;;;;;;;;5018060;28;45391;-63
2022/09/12 16:54:19;;;;;;;;;3.75;2.00;;;;;;;;5012120;28;46360;-64
2022/09/12 16:56:45;;;;;;;;;1.75;1.75;;;;;;;;5010564;28;45261;-64
2022/09/12 16:59:15;;;;;;;;;2.00;2.00;;;;;;;;5018435;28;45698;-63
2022/09/12 17:01:40;;;;;;;;;2.00;2.00;;;;;;;;5019021;28;45597;-65
2022/09/12 17:04:05;;;;;;;;;3.00;3.00;;;;;;;;5018543;28;46080;-64
2022/09/12 17:06:31;;;;;;;;;2.00;1.75;;;;;;;;5016102;28;45439;-64
2022/09/12 17:08:59;;;;;;;;;4.00;2.75;;;;;;;;5017921;28;45467;-64
2022/09/12 17:11:30;;;;;;;;;1.50;1.00;;;;;;;;5018314;28;45292;-64
2022/09/12 17:13:56;;;;;;;;;2.00;2.00;;;;;;;;5018724;28;46232;-64
2022/09/12 17:16:22;;;;;;;;;3.50;2.00;;;;;;;;5017908;28;45450;-64
2022/09/12 17:18:47;;;;;;;;;0.25;0.25;;;;;;;;5018904;28;45634;-64
2022/09/12 17:21:13;;;;;;;;;2.00;2.00;;;;;;;;5016263;28;45422;-64
2022/09/12 17:23:38;;;;;;;;;1.00;1.00;;;;;;;;5013088;28;45457;-63
2022/09/12 17:26:04;;;;;;;;;1.25;1.25;;;;;;;;5018349;28;45768;-64
2022/09/12 17:28:29;;;;;;;;;3.00;1.75;;;;;;;;5011682;28;45284;-64
2022/09/12 17:30:55;;;;;;;;;3.00;1.25;;;;;;;;5008784;28;45335;-64
2022/09/12 17:33:21;;;;;;;;;2.00;2.00;;;;;;;;5015933;28;48351;-64
2022/09/12 17:35:46;;;;;;;;;2.25;1.00;;;;;;;;5013538;28;46415;-64
2022/09/12 17:38:11;;;;;;;;;2.00;1.75;;;;;;;;5015386;28;45557;-64
2022/09/12 17:40:36;;;;;;;;;3.00;2.25;;;;;;;;5009482;28;45521;-65
2022/09/12 17:43:02;;;;;;;;;1.75;1.75;;;;;;;;5012458;28;46214;-65
2022/09/12 17:45:27;;;;;;;;;2.00;2.00;;;;;;;;5015899;28;45460;-64
2022/09/12 17:47:52;;;;;;;;;2.00;2.00;;;;;;;;5016506;28;45315;-64
2022/09/12 17:50:18;;;;;;;;;3.00;3.00;;;;;;;;5012762;28;46473;-64
2022/09/12 17:52:43;;;;;;;;;9.00;5.00;;;;;;;;5015168;28;46413;-64
2022/09/12 17:55:09;;;;;;;;;2.00;2.00;;;;;;;;5013868;28;45419;-64
2022/09/12 17:57:34;;;;;;;;;2.00;2.00;;;;;;;;5018540;28;46216;-64
2022/09/12 17:59:59;;;;;;;;;3.00;3.00;;;;;;;;5021094;28;45509;-64
2022/09/12 18:02:24;;;;;;;;;2.50;2.00;;;;;;;;5019104;28;45636;-63
2022/09/12 18:04:49;;;;;;;;;2.25;2.25;;;;;;;;5017234;28;45489;-63
2022/09/12 18:07:17;;;;;;;;;1.00;1.00;;;;;;;;5024334;28;45475;-64
2022/09/12 18:09:42;;;;;;;;;2.25;2.25;;;;;;;;5020260;28;45569;-64
2022/09/12 18:12:07;;;;;;;;;6.00;6.00;;;;;;;;5019566;28;46091;-64
2022/09/12 18:14:33;;;;;;;;;3.50;3.50;;;;;;;;5020683;28;45495;-64
2022/09/12 18:16:59;;;;;;;;;6.00;4.50;;;;;;;;5023710;28;45415;-64
2022/09/12 18:19:25;;;;;;;;;3.00;3.00;;;;;;;;5022534;28;45584;-64
2022/09/12 18:21:50;;;;;;;;;5.00;4.00;;;;;;;;5029925;28;46237;-64
2022/09/12 18:24:16;;;;;;;;;4.00;3.50;;;;;;;;5010324;28;45443;-64
2022/09/12 18:26:42;;;;;;;;;2.25;2.25;;;;;;;;5015618;28;46226;-64
2022/09/12 18:29:08;;;;;;;;;4.00;4.00;;;;;;;;5019259;28;45486;-64
2022/09/12 18:31:33;;;;;;;;;4.00;4.00;;;;;;;;5017123;28;46740;-63
2022/09/12 18:33:59;;;;;;;;;4.75;4.75;;;;;;;;5016513;28;45414;-63
2022/09/12 18:36:24;;;;;;;;;3.75;2.75;;;;;;;;5017503;28;47330;-63
2022/09/12 18:38:50;;;;;;;;;3.25;3.25;;;;;;;;5015671;28;45414;-63
2022/09/12 18:41:17;;;;;;;;;3.50;3.50;;;;;;;;5016062;28;46173;-63
2022/09/12 18:43:42;;;;;;;;;4.00;4.00;;;;;;;;5024335;28;45371;-63
2022/09/12 18:46:12;;;;;;;;;5.75;5.75;;;;;;;;5020261;28;45352;-63
2022/09/12 18:48:37;;;;;;;;;5.25;4.00;;;;;;;;5014878;28;45588;-63
2022/09/12 18:51:06;;;;;;;;;8.00;6.00;;;;;;;;5021381;28;45458;-64
2022/09/12 18:53:38;;;;;;;;;6.33;6.33;;;;;;;;5019735;28;45432;-65
2022/09/12 18:56:05;;;;;;;;;1.67;1.67;;;;;;;;5012075;28;46127;-64
2022/09/12 18:58:30;;;;;;;;;6.00;6.00;;;;;;;;5008955;28;45818;-64
2022/09/12 19:00:56;;;;;;;;;8.00;7.00;;;;;;;;5013105;28;45663;-64
2022/09/12 19:03:21;;;;;;;;;8.33;6.00;;;;;;;;5016882;28;45918;-64
2022/09/12 19:05:46;;;;;;;;;8.25;6.25;;;;;;;;5007918;28;46034;-64
2022/09/12 19:08:11;;;;;;;;;9.00;6.75;;;;;;;;5016593;28;45467;-64
2022/09/12 19:10:36;;;;;;;;;8.00;8.00;;;;;;;;5015318;28;47682;-64
2022/09/12 19:13:02;;;;;;;;;6.00;6.00;;;;;;;;5012010;28;46880;-64